sensor_id;sensor_type;location;lat;lon;timestamp;temperature;humidity
18281;DHT22;9266;51.132;17.062;2023-07-08T00:02:10;16.20;52.60
18281;DHT22;9266;51.132;17.062;2023-07-08T00:04:39;16.20;1.00
18281;DHT22;9266;51.132;17.062;2023-07-08T00:07:11;16.00;1.00
18281;DHT22;9266;51.132;17.062;2023-07-08T00:09:38;15.90;60.10
18281;DHT22;9266;51.132;17.062;2023-07-08T00:12:10;15.90;1.00
18281;DHT22;9266;51.132;17.062;2023-07-08T00:14:37;15.70;99.90
18281;DHT22;9266;51.132;17.062;2023-07-08T00:17:10;15.70;1.00
18281;DHT22;9266;51.132;17.062;2023-07-08T00:19:39;15.60;99.90
18281;DHT22;9266;51.132;17.062;2023-07-08T00:22:10;15.50;1.00
18281;DHT22;9266;51.132;17.062;2023-07-08T00:24:38;15.40;1.00
18281;DHT22;9266;51.132;17.062;2023-07-08T00:27:08;15.20;1.00
18281;DHT22;9266;51.132;17.062;2023-07-08T00:29:37;15.30;1.00
18281;DHT22;9266;51.132;17.062;2023-07-08T00:32:09;15.30;99.90
18281;DHT22;9266;51.132;17.062;2023-07-08T00:34:37;15.50;1.00
18281;DHT22;9266;51.132;17.062;2023-07-08T00:37:05;15.60;99.90
18281;DHT22;9266;51.132;17.062;2023-07-08T00:39:32;15.60;1.00
18281;DHT22;9266;51.132;17.062;2023-07-08T00:42:00;15.60;1.00
18281;DHT22;9266;51.132;17.062;2023-07-08T00:44:28;15.60;1.00
18281;DHT22;9266;51.132;17.062;2023-07-08T00:46:58;15.40;1.00
18281;DHT22;9266;51.132;17.062;2023-07-08T00:49:38;15.30;1.00
18281;DHT22;9266;51.132;17.062;2023-07-08T00:52:22;15.40;1.00
18281;DHT22;9266;51.132;17.062;2023-07-08T00:54:50;15.30;1.00
18281;DHT22;9266;51.132;17.062;2023-07-08T00:57:18;15.30;99.90
18281;DHT22;9266;51.132;17.062;2023-07-08T00:59:49;15.40;1.00
18281;DHT22;9266;51.132;17.062;2023-07-08T01:02:19;15.40;99.90
18281;DHT22;9266;51.132;17.062;2023-07-08T01:04:51;15.30;1.00
18281;DHT22;9266;51.132;17.062;2023-07-08T01:07:21;15.30;1.00
18281;DHT22;9266;51.132;17.062;2023-07-08T01:09:53;15.30;1.00
18281;DHT22;9266;51.132;17.062;2023-07-08T01:12:27;15.20;1.00
18281;DHT22;9266;51.132;17.062;2023-07-08T01:14:54;15.10;1.00
18281;DHT22;9266;51.132;17.062;2023-07-08T01:17:23;15.10;51.40
18281;DHT22;9266;51.132;17.062;2023-07-08T01:19:50;15.00;57.70
18281;DHT22;9266;51.132;17.062;2023-07-08T01:22:22;15.10;1.00
18281;DHT22;9266;51.132;17.062;2023-07-08T01:24:49;15.10;1.00
18281;DHT22;9266;51.132;17.062;2023-07-08T01:27:19;15.00;1.00
18281;DHT22;9266;51.132;17.062;2023-07-08T01:29:46;15.00;1.00
18281;DHT22;9266;51.132;17.062;2023-07-08T01:32:14;15.00;1.00
18281;DHT22;9266;51.132;17.062;2023-07-08T01:34:44;15.00;99.90
18281;DHT22;9266;51.132;17.062;2023-07-08T01:37:31;14.80;99.90
18281;DHT22;9266;51.132;17.062;2023-07-08T01:40:14;14.80;1.00
18281;DHT22;9266;51.132;17.062;2023-07-08T01:42:41;14.80;99.90
18281;DHT22;9266;51.132;17.062;2023-07-08T01:45:11;14.80;99.90
18281;DHT22;9266;51.132;17.062;2023-07-08T01:47:40;14.80;1.00
18281;DHT22;9266;51.132;17.062;2023-07-08T01:50:08;14.80;1.00
18281;DHT22;9266;51.132;17.062;2023-07-08T01:52:37;14.70;1.00
18281;DHT22;9266;51.132;17.062;2023-07-08T01:55:05;14.70;1.00
18281;DHT22;9266;51.132;17.062;2023-07-08T01:57:32;14.70;1.00
18281;DHT22;9266;51.132;17.062;2023-07-08T01:59:59;14.60;1.00
18281;DHT22;9266;51.132;17.062;2023-07-08T02:02:26;14.70;1.00
18281;DHT22;9266;51.132;17.062;2023-07-08T02:04:53;14.70;1.00
18281;DHT22;9266;51.132;17.062;2023-07-08T02:07:20;14.60;23.60
18281;DHT22;9266;51.132;17.062;2023-07-08T02:09:48;14.50;1.00
18281;DHT22;9266;51.132;17.062;2023-07-08T02:12:15;14.50;99.90
18281;DHT22;9266;51.132;17.062;2023-07-08T02:14:42;14.50;99.90
18281;DHT22;9266;51.132;17.062;2023-07-08T02:17:09;14.40;1.00
18281;DHT22;9266;51.132;17.062;2023-07-08T02:19:36;14.50;1.00
18281;DHT22;9266;51.132;17.062;2023-07-08T02:22:03;14.50;99.90
18281;DHT22;9266;51.132;17.062;2023-07-08T02:24:30;14.50;99.90
18281;DHT22;9266;51.132;17.062;2023-07-08T02:26:59;14.50;99.90
18281;DHT22;9266;51.132;17.062;2023-07-08T02:29:26;14.50;99.90
18281;DHT22;9266;51.132;17.062;2023-07-08T02:31:53;14.50;99.90
18281;DHT22;9266;51.132;17.062;2023-07-08T02:34:20;14.50;62.20
18281;DHT22;9266;51.132;17.062;2023-07-08T02:36:47;14.50;1.00
18281;DHT22;9266;51.132;17.062;2023-07-08T02:39:14;14.50;1.00
18281;DHT22;9266;51.132;17.062;2023-07-08T02:41:41;14.30;1.00
18281;DHT22;9266;51.132;17.062;2023-07-08T02:44:09;14.30;99.90
18281;DHT22;9266;51.132;17.062;2023-07-08T02:46:36;14.30;99.90
18281;DHT22;9266;51.132;17.062;2023-07-08T02:49:03;14.30;99.90
18281;DHT22;9266;51.132;17.062;2023-07-08T02:51:31;14.30;1.00
18281;DHT22;9266;51.132;17.062;2023-07-08T02:53:58;14.30;1.00
18281;DHT22;9266;51.132;17.062;2023-07-08T02:56:25;14.30;1.00
18281;DHT22;9266;51.132;17.062;2023-07-08T02:58:52;14.30;1.00
18281;DHT22;9266;51.132;17.062;2023-07-08T03:01:21;14.30;16.50
18281;DHT22;9266;51.132;17.062;2023-07-08T03:03:48;14.30;99.90
18281;DHT22;9266;51.132;17.062;2023-07-08T03:06:16;14.30;99.90
18281;DHT22;9266;51.132;17.062;2023-07-08T03:08:43;14.40;99.90
18281;DHT22;9266;51.132;17.062;2023-07-08T03:11:10;13.40;99.90
18281;DHT22;9266;51.132;17.062;2023-07-08T03:13:37;14.90;1.00
18281;DHT22;9266;51.132;17.062;2023-07-08T03:16:04;15.30;1.00
18281;DHT22;9266;51.132;17.062;2023-07-08T03:18:39;15.50;1.00
18281;DHT22;9266;51.132;17.062;2023-07-08T03:21:12;15.90;99.90
18281;DHT22;9266;51.132;17.062;2023-07-08T03:23:39;16.30;99.90
18281;DHT22;9266;51.132;17.062;2023-07-08T03:26:06;16.70;1.00
18281;DHT22;9266;51.132;17.062;2023-07-08T03:28:34;17.00;1.00
18281;DHT22;9266;51.132;17.062;2023-07-08T03:31:00;17.40;1.00
18281;DHT22;9266;51.132;17.062;2023-07-08T03:33:27;17.60;1.00
18281;DHT22;9266;51.132;17.062;2023-07-08T03:35:56;18.00;1.00
18281;DHT22;9266;51.132;17.062;2023-07-08T03:38:23;18.20;99.90
18281;DHT22;9266;51.132;17.062;2023-07-08T03:40:50;18.50;1.00
18281;DHT22;9266;51.132;17.062;2023-07-08T03:43:17;18.70;1.00
18281;DHT22;9266;51.132;17.062;2023-07-08T03:45:44;19.00;99.90
18281;DHT22;9266;51.132;17.062;2023-07-08T03:48:11;19.20;99.90
18281;DHT22;9266;51.132;17.062;2023-07-08T03:50:39;19.50;99.90
18281;DHT22;9266;51.132;17.062;2023-07-08T03:53:09;19.60;1.00
18281;DHT22;9266;51.132;17.062;2023-07-08T03:55:36;20.20;1.00
18281;DHT22;9266;51.132;17.062;2023-07-08T03:58:03;20.50;99.90
18281;DHT22;9266;51.132;17.062;2023-07-08T04:00:30;20.50;1.00
18281;DHT22;9266;51.132;17.062;2023-07-08T04:02:57;20.80;1.00
18281;DHT22;9266;51.132;17.062;2023-07-08T04:05:24;21.00;1.00
18281;DHT22;9266;51.132;17.062;2023-07-08T04:07:52;21.10;1.00
18281;DHT22;9266;51.132;17.062;2023-07-08T04:10:21;21.30;99.90
18281;DHT22;9266;51.132;17.062;2023-07-08T04:12:48;21.50;99.90
18281;DHT22;9266;51.132;17.062;2023-07-08T04:15:15;22.80;99.90
18281;DHT22;9266;51.132;17.062;2023-07-08T04:17:45;21.80;99.90
18281;DHT22;9266;51.132;17.062;2023-07-08T04:20:14;21.90;99.90
18281;DHT22;9266;51.132;17.062;2023-07-08T04:22:41;22.10;99.90
18281;DHT22;9266;51.132;17.062;2023-07-08T04:25:08;22.30;99.90
18281;DHT22;9266;51.132;17.062;2023-07-08T04:27:38;21.80;99.90
18281;DHT22;9266;51.132;17.062;2023-07-08T04:30:06;22.90;76.80
18281;DHT22;9266;51.132;17.062;2023-07-08T04:32:33;23.10;1.00
18281;DHT22;9266;51.132;17.062;2023-07-08T04:35:04;23.50;1.00
18281;DHT22;9266;51.132;17.062;2023-07-08T04:37:31;24.30;1.00
18281;DHT22;9266;51.132;17.062;2023-07-08T04:39:58;24.70;1.00
18281;DHT22;9266;51.132;17.062;2023-07-08T04:42:25;25.00;1.00
18281;DHT22;9266;51.132;17.062;2023-07-08T04:44:55;25.00;1.00
18281;DHT22;9266;51.132;17.062;2023-07-08T04:47:22;25.40;1.00
18281;DHT22;9266;51.132;17.062;2023-07-08T04:49:49;25.40;1.00
18281;DHT22;9266;51.132;17.062;2023-07-08T04:52:16;25.30;1.00
18281;DHT22;9266;51.132;17.062;2023-07-08T04:54:43;25.70;99.90
18281;DHT22;9266;51.132;17.062;2023-07-08T04:57:10;26.10;99.90
18281;DHT22;9266;51.132;17.062;2023-07-08T04:59:37;25.80;99.90
18281;DHT22;9266;51.132;17.062;2023-07-08T05:02:05;26.10;99.90
18281;DHT22;9266;51.132;17.062;2023-07-08T05:04:33;26.20;99.90
18281;DHT22;9266;51.132;17.062;2023-07-08T05:07:00;26.50;99.90
18281;DHT22;9266;51.132;17.062;2023-07-08T05:09:27;26.40;99.90
18281;DHT22;9266;51.132;17.062;2023-07-08T05:11:54;26.00;99.90
18281;DHT22;9266;51.132;17.062;2023-07-08T05:14:21;26.10;99.90
18281;DHT22;9266;51.132;17.062;2023-07-08T05:16:48;25.60;99.90
18281;DHT22;9266;51.132;17.062;2023-07-08T05:19:16;26.30;99.90
18281;DHT22;9266;51.132;17.062;2023-07-08T05:21:44;26.80;99.90
18281;DHT22;9266;51.132;17.062;2023-07-08T05:24:11;26.20;99.90
18281;DHT22;9266;51.132;17.062;2023-07-08T05:26:38;27.20;99.90
18281;DHT22;9266;51.132;17.062;2023-07-08T05:29:05;27.50;99.90
18281;DHT22;9266;51.132;17.062;2023-07-08T05:31:33;27.30;99.90
18281;DHT22;9266;51.132;17.062;2023-07-08T05:34:00;27.00;99.90
18281;DHT22;9266;51.132;17.062;2023-07-08T05:36:30;27.20;99.90
18281;DHT22;9266;51.132;17.062;2023-07-08T05:38:57;27.60;99.90
18281;DHT22;9266;51.132;17.062;2023-07-08T05:41:24;27.80;99.90
18281;DHT22;9266;51.132;17.062;2023-07-08T05:43:51;28.30;99.90
18281;DHT22;9266;51.132;17.062;2023-07-08T05:46:18;29.10;99.90
18281;DHT22;9266;51.132;17.062;2023-07-08T05:48:45;29.00;98.60
18281;DHT22;9266;51.132;17.062;2023-07-08T05:51:13;28.00;26.70
18281;DHT22;9266;51.132;17.062;2023-07-08T05:53:41;28.60;94.30
18281;DHT22;9266;51.132;17.062;2023-07-08T05:56:08;28.60;38.80
18281;DHT22;9266;51.132;17.062;2023-07-08T05:58:35;28.90;90.90
18281;DHT22;9266;51.132;17.062;2023-07-08T06:01:02;29.80;80.00
18281;DHT22;9266;51.132;17.062;2023-07-08T06:03:29;28.70;1.00
18281;DHT22;9266;51.132;17.062;2023-07-08T06:05:56;28.10;1.00
18281;DHT22;9266;51.132;17.062;2023-07-08T06:08:23;28.20;1.00
18281;DHT22;9266;51.132;17.062;2023-07-08T06:10:51;28.20;1.00
18281;DHT22;9266;51.132;17.062;2023-07-08T06:13:18;28.80;1.00
18281;DHT22;9266;51.132;17.062;2023-07-08T06:15:45;29.20;1.60
18281;DHT22;9266;51.132;17.062;2023-07-08T06:18:12;29.50;1.00
18281;DHT22;9266;51.132;17.062;2023-07-08T06:20:39;30.00;26.80
18281;DHT22;9266;51.132;17.062;2023-07-08T06:23:06;31.30;23.00
18281;DHT22;9266;51.132;17.062;2023-07-08T06:25:33;32.00;1.00
18281;DHT22;9266;51.132;17.062;2023-07-08T06:28:01;30.40;1.00
18281;DHT22;9266;51.132;17.062;2023-07-08T06:30:28;30.10;1.00
18281;DHT22;9266;51.132;17.062;2023-07-08T06:32:55;30.80;1.00
18281;DHT22;9266;51.132;17.062;2023-07-08T06:35:22;30.60;1.00
18281;DHT22;9266;51.132;17.062;2023-07-08T06:37:49;31.30;1.00
18281;DHT22;9266;51.132;17.062;2023-07-08T06:40:16;30.20;1.00
18281;DHT22;9266;51.132;17.062;2023-07-08T06:42:45;30.50;1.00
18281;DHT22;9266;51.132;17.062;2023-07-08T06:45:14;31.50;1.00
18281;DHT22;9266;51.132;17.062;2023-07-08T06:47:41;32.00;1.00
18281;DHT22;9266;51.132;17.062;2023-07-08T06:50:08;31.60;1.00
18281;DHT22;9266;51.132;17.062;2023-07-08T06:52:35;31.30;1.00
18281;DHT22;9266;51.132;17.062;2023-07-08T06:55:05;30.80;1.00
18281;DHT22;9266;51.132;17.062;2023-07-08T06:57:33;31.70;1.00
18281;DHT22;9266;51.132;17.062;2023-07-08T06:59:59;31.20;1.00
18281;DHT22;9266;51.132;17.062;2023-07-08T07:02:28;32.20;1.00
18281;DHT22;9266;51.132;17.062;2023-07-08T07:04:55;32.60;1.00
18281;DHT22;9266;51.132;17.062;2023-07-08T07:07:22;32.70;1.00
18281;DHT22;9266;51.132;17.062;2023-07-08T07:09:49;33.60;1.00
18281;DHT22;9266;51.132;17.062;2023-07-08T07:12:16;33.60;1.00
18281;DHT22;9266;51.132;17.062;2023-07-08T07:14:42;33.50;1.00
18281;DHT22;9266;51.132;17.062;2023-07-08T07:17:09;34.20;1.00
18281;DHT22;9266;51.132;17.062;2023-07-08T07:19:38;33.10;1.00
18281;DHT22;9266;51.132;17.062;2023-07-08T07:22:05;32.50;1.00
18281;DHT22;9266;51.132;17.062;2023-07-08T07:24:32;33.20;1.00
18281;DHT22;9266;51.132;17.062;2023-07-08T07:26:59;34.20;1.00
18281;DHT22;9266;51.132;17.062;2023-07-08T07:29:26;33.90;1.00
18281;DHT22;9266;51.132;17.062;2023-07-08T07:31:53;34.70;1.00
18281;DHT22;9266;51.132;17.062;2023-07-08T07:34:20;35.20;1.00
18281;DHT22;9266;51.132;17.062;2023-07-08T07:36:48;34.90;1.00
18281;DHT22;9266;51.132;17.062;2023-07-08T07:39:15;34.90;99.90
18281;DHT22;9266;51.132;17.062;2023-07-08T07:41:42;32.50;99.90
18281;DHT22;9266;51.132;17.062;2023-07-08T07:44:09;34.20;99.90
18281;DHT22;9266;51.132;17.062;2023-07-08T07:46:36;34.30;99.90
18281;DHT22;9266;51.132;17.062;2023-07-08T07:49:03;33.80;99.90
18281;DHT22;9266;51.132;17.062;2023-07-08T07:51:30;34.00;99.90
18281;DHT22;9266;51.132;17.062;2023-07-08T07:53:58;34.60;99.90
18281;DHT22;9266;51.132;17.062;2023-07-08T07:56:25;34.40;99.90
18281;DHT22;9266;51.132;17.062;2023-07-08T07:58:52;33.50;99.90
18281;DHT22;9266;51.132;17.062;2023-07-08T08:01:19;33.80;99.90
18281;DHT22;9266;51.132;17.062;2023-07-08T08:03:48;34.40;99.90
18281;DHT22;9266;51.132;17.062;2023-07-08T08:06:16;34.30;99.90
18281;DHT22;9266;51.132;17.062;2023-07-08T08:08:44;34.50;99.90
18281;DHT22;9266;51.132;17.062;2023-07-08T08:11:12;34.80;99.90
18281;DHT22;9266;51.132;17.062;2023-07-08T08:13:39;34.30;99.90
18281;DHT22;9266;51.132;17.062;2023-07-08T08:16:06;34.20;57.00
18281;DHT22;9266;51.132;17.062;2023-07-08T08:18:33;34.30;36.40
18281;DHT22;9266;51.132;17.062;2023-07-08T08:21:00;34.60;29.00
18281;DHT22;9266;51.132;17.062;2023-07-08T08:23:27;34.10;1.00
18281;DHT22;9266;51.132;17.062;2023-07-08T08:25:54;34.30;1.00
18281;DHT22;9266;51.132;17.062;2023-07-08T08:28:22;34.30;1.00
18281;DHT22;9266;51.132;17.062;2023-07-08T08:30:50;34.70;1.00
18281;DHT22;9266;51.132;17.062;2023-07-08T08:33:18;35.30;1.00
18281;DHT22;9266;51.132;17.062;2023-07-08T08:35:45;35.20;1.00
18281;DHT22;9266;51.132;17.062;2023-07-08T08:38:13;33.90;1.00
18281;DHT22;9266;51.132;17.062;2023-07-08T08:40:40;34.20;1.00
18281;DHT22;9266;51.132;17.062;2023-07-08T08:43:12;34.20;1.00
18281;DHT22;9266;51.132;17.062;2023-07-08T08:45:45;33.30;1.00
18281;DHT22;9266;51.132;17.062;2023-07-08T08:48:17;33.10;1.00
18281;DHT22;9266;51.132;17.062;2023-07-08T08:50:51;33.20;1.00
18281;DHT22;9266;51.132;17.062;2023-07-08T08:53:20;34.10;1.00
18281;DHT22;9266;51.132;17.062;2023-07-08T08:55:54;34.00;1.00
18281;DHT22;9266;51.132;17.062;2023-07-08T08:58:30;33.40;1.00
18281;DHT22;9266;51.132;17.062;2023-07-08T09:01:03;33.50;1.00
18281;DHT22;9266;51.132;17.062;2023-07-08T09:03:42;34.00;1.00
18281;DHT22;9266;51.132;17.062;2023-07-08T09:06:12;34.40;1.00
18281;DHT22;9266;51.132;17.062;2023-07-08T09:08:40;34.50;1.00
18281;DHT22;9266;51.132;17.062;2023-07-08T09:11:18;34.20;1.00
18281;DHT22;9266;51.132;17.062;2023-07-08T09:13:49;34.70;1.00
18281;DHT22;9266;51.132;17.062;2023-07-08T09:16:26;34.10;1.00
18281;DHT22;9266;51.132;17.062;2023-07-08T09:18:59;33.00;1.00
18281;DHT22;9266;51.132;17.062;2023-07-08T09:21:30;32.90;1.00
18281;DHT22;9266;51.132;17.062;2023-07-08T09:24:02;32.40;1.00
18281;DHT22;9266;51.132;17.062;2023-07-08T09:26:31;32.70;1.00
18281;DHT22;9266;51.132;17.062;2023-07-08T09:28:59;31.90;1.00
18281;DHT22;9266;51.132;17.062;2023-07-08T09:31:30;31.90;1.00
18281;DHT22;9266;51.132;17.062;2023-07-08T09:34:06;31.70;1.00
18281;DHT22;9266;51.132;17.062;2023-07-08T09:36:34;31.70;1.00
18281;DHT22;9266;51.132;17.062;2023-07-08T09:39:10;31.70;1.00
18281;DHT22;9266;51.132;17.062;2023-07-08T09:41:38;31.50;1.00
18281;DHT22;9266;51.132;17.062;2023-07-08T09:44:15;30.70;1.00
18281;DHT22;9266;51.132;17.062;2023-07-08T09:46:44;30.40;1.00
18281;DHT22;9266;51.132;17.062;2023-07-08T09:49:21;28.10;1.00
18281;DHT22;9266;51.132;17.062;2023-07-08T09:51:49;29.60;1.00
18281;DHT22;9266;51.132;17.062;2023-07-08T09:54:17;29.40;1.00
18281;DHT22;9266;51.132;17.062;2023-07-08T09:56:49;29.30;99.90
18281;DHT22;9266;51.132;17.062;2023-07-08T09:59:22;29.50;1.00
18281;DHT22;9266;51.132;17.062;2023-07-08T10:01:53;29.30;1.00
18281;DHT22;9266;51.132;17.062;2023-07-08T10:04:22;29.10;1.00
18281;DHT22;9266;51.132;17.062;2023-07-08T10:06:49;28.80;99.90
18281;DHT22;9266;51.132;17.062;2023-07-08T10:09:20;28.90;99.90
18281;DHT22;9266;51.132;17.062;2023-07-08T10:11:54;29.00;99.90
18281;DHT22;9266;51.132;17.062;2023-07-08T10:14:26;29.20;99.90
18281;DHT22;9266;51.132;17.062;2023-07-08T10:16:56;29.30;1.00
18281;DHT22;9266;51.132;17.062;2023-07-08T10:19:23;29.40;1.00
18281;DHT22;9266;51.132;17.062;2023-07-08T10:22:07;29.20;1.00
18281;DHT22;9266;51.132;17.062;2023-07-08T10:24:48;29.00;99.90
18281;DHT22;9266;51.132;17.062;2023-07-08T10:27:23;28.90;99.90
18281;DHT22;9266;51.132;17.062;2023-07-08T10:29:55;28.30;99.90
18281;DHT22;9266;51.132;17.062;2023-07-08T10:32:33;28.20;99.90
18281;DHT22;9266;51.132;17.062;2023-07-08T10:35:12;28.20;99.90
18281;DHT22;9266;51.132;17.062;2023-07-08T10:37:53;28.70;99.90
18281;DHT22;9266;51.132;17.062;2023-07-08T10:40:35;29.00;99.90
18281;DHT22;9266;51.132;17.062;2023-07-08T10:43:25;28.90;99.90
18281;DHT22;9266;51.132;17.062;2023-07-08T10:46:03;28.70;99.90
18281;DHT22;9266;51.132;17.062;2023-07-08T10:48:51;28.60;99.90
18281;DHT22;9266;51.132;17.062;2023-07-08T10:51:28;28.60;99.90
18281;DHT22;9266;51.132;17.062;2023-07-08T10:54:24;28.70;99.90
18281;DHT22;9266;51.132;17.062;2023-07-08T10:56:57;29.00;1.00
18281;DHT22;9266;51.132;17.062;2023-07-08T10:59:41;28.80;1.00
18281;DHT22;9266;51.132;17.062;2023-07-08T11:02:40;29.00;1.00
18281;DHT22;9266;51.132;17.062;2023-07-08T11:05:23;28.50;1.00
18281;DHT22;9266;51.132;17.062;2023-07-08T11:07:56;28.70;1.00
18281;DHT22;9266;51.132;17.062;2023-07-08T11:10:28;28.60;1.00
18281;DHT22;9266;51.132;17.062;2023-07-08T11:13:01;28.60;1.00
18281;DHT22;9266;51.132;17.062;2023-07-08T11:15:35;28.60;1.00
18281;DHT22;9266;51.132;17.062;2023-07-08T11:18:07;28.60;1.00
18281;DHT22;9266;51.132;17.062;2023-07-08T11:20:41;28.90;1.00
18281;DHT22;9266;51.132;17.062;2023-07-08T11:23:16;28.90;1.00
18281;DHT22;9266;51.132;17.062;2023-07-08T11:25:46;29.10;1.00
18281;DHT22;9266;51.132;17.062;2023-07-08T11:28:18;29.20;1.00
18281;DHT22;9266;51.132;17.062;2023-07-08T11:30:50;29.20;1.00
18281;DHT22;9266;51.132;17.062;2023-07-08T11:33:21;29.20;1.00
18281;DHT22;9266;51.132;17.062;2023-07-08T11:35:53;29.50;1.00
18281;DHT22;9266;51.132;17.062;2023-07-08T11:38:24;29.70;1.00
18281;DHT22;9266;51.132;17.062;2023-07-08T11:40:56;29.50;1.00
18281;DHT22;9266;51.132;17.062;2023-07-08T11:43:27;29.70;1.00
18281;DHT22;9266;51.132;17.062;2023-07-08T11:45:56;29.70;1.00
18281;DHT22;9266;51.132;17.062;2023-07-08T11:48:26;30.60;1.00
18281;DHT22;9266;51.132;17.062;2023-07-08T11:50:56;29.90;1.00
18281;DHT22;9266;51.132;17.062;2023-07-08T11:53:38;30.10;1.00
18281;DHT22;9266;51.132;17.062;2023-07-08T11:56:19;30.10;1.00
18281;DHT22;9266;51.132;17.062;2023-07-08T11:58:53;30.10;1.00
18281;DHT22;9266;51.132;17.062;2023-07-08T12:01:26;30.20;1.00
18281;DHT22;9266;51.132;17.062;2023-07-08T12:04:00;30.10;1.00
18281;DHT22;9266;51.132;17.062;2023-07-08T12:06:47;30.70;1.00
18281;DHT22;9266;51.132;17.062;2023-07-08T12:09:20;30.00;1.00
18281;DHT22;9266;51.132;17.062;2023-07-08T12:11:53;30.10;1.00
18281;DHT22;9266;51.132;17.062;2023-07-08T12:14:22;30.10;1.00
18281;DHT22;9266;51.132;17.062;2023-07-08T12:16:50;29.90;1.00
18281;DHT22;9266;51.132;17.062;2023-07-08T12:19:19;30.00;1.00
18281;DHT22;9266;51.132;17.062;2023-07-08T12:21:49;30.10;1.00
18281;DHT22;9266;51.132;17.062;2023-07-08T12:24:17;30.10;1.00
18281;DHT22;9266;51.132;17.062;2023-07-08T12:26:52;30.00;1.00
18281;DHT22;9266;51.132;17.062;2023-07-08T12:29:19;30.00;1.00
18281;DHT22;9266;51.132;17.062;2023-07-08T12:31:46;30.00;1.00
18281;DHT22;9266;51.132;17.062;2023-07-08T12:34:14;29.70;1.00
18281;DHT22;9266;51.132;17.062;2023-07-08T12:36:43;29.70;1.00
18281;DHT22;9266;51.132;17.062;2023-07-08T12:39:14;29.70;1.00
18281;DHT22;9266;51.132;17.062;2023-07-08T12:41:43;29.70;1.00
18281;DHT22;9266;51.132;17.062;2023-07-08T12:44:16;29.60;1.00
18281;DHT22;9266;51.132;17.062;2023-07-08T12:46:45;29.70;1.00
18281;DHT22;9266;51.132;17.062;2023-07-08T12:49:14;29.80;1.00
18281;DHT22;9266;51.132;17.062;2023-07-08T12:51:43;29.90;1.00
18281;DHT22;9266;51.132;17.062;2023-07-08T12:54:12;29.70;1.00
18281;DHT22;9266;51.132;17.062;2023-07-08T12:56:42;29.70;1.00
18281;DHT22;9266;51.132;17.062;2023-07-08T12:59:12;29.70;1.00
18281;DHT22;9266;51.132;17.062;2023-07-08T13:01:41;29.80;1.00
18281;DHT22;9266;51.132;17.062;2023-07-08T13:04:10;29.80;1.00
18281;DHT22;9266;51.132;17.062;2023-07-08T13:06:39;29.80;1.00
18281;DHT22;9266;51.132;17.062;2023-07-08T13:09:14;29.50;1.00
18281;DHT22;9266;51.132;17.062;2023-07-08T13:11:45;29.00;1.00
18281;DHT22;9266;51.132;17.062;2023-07-08T13:14:14;29.00;1.00
18281;DHT22;9266;51.132;17.062;2023-07-08T13:16:42;29.20;1.00
18281;DHT22;9266;51.132;17.062;2023-07-08T13:19:11;29.30;1.00
18281;DHT22;9266;51.132;17.062;2023-07-08T13:21:39;29.20;1.00
18281;DHT22;9266;51.132;17.062;2023-07-08T13:24:08;29.30;1.00
18281;DHT22;9266;51.132;17.062;2023-07-08T13:26:37;29.40;1.00
18281;DHT22;9266;51.132;17.062;2023-07-08T13:29:11;29.40;1.00
18281;DHT22;9266;51.132;17.062;2023-07-08T13:31:41;29.50;1.00
18281;DHT22;9266;51.132;17.062;2023-07-08T13:34:13;29.40;1.00
18281;DHT22;9266;51.132;17.062;2023-07-08T13:36:44;29.50;1.00
18281;DHT22;9266;51.132;17.062;2023-07-08T13:39:15;29.60;1.00
18281;DHT22;9266;51.132;17.062;2023-07-08T13:41:45;29.30;1.00
18281;DHT22;9266;51.132;17.062;2023-07-08T13:44:12;29.30;1.00
18281;DHT22;9266;51.132;17.062;2023-07-08T13:46:44;29.30;1.00
18281;DHT22;9266;51.132;17.062;2023-07-08T13:49:13;29.20;1.00
18281;DHT22;9266;51.132;17.062;2023-07-08T13:51:41;29.30;1.00
18281;DHT22;9266;51.132;17.062;2023-07-08T13:54:17;29.50;1.00
18281;DHT22;9266;51.132;17.062;2023-07-08T13:56:47;29.60;1.00
18281;DHT22;9266;51.132;17.062;2023-07-08T13:59:18;29.70;1.00
18281;DHT22;9266;51.132;17.062;2023-07-08T14:01:46;29.60;1.00
18281;DHT22;9266;51.132;17.062;2023-07-08T14:04:17;29.80;1.00
18281;DHT22;9266;51.132;17.062;2023-07-08T14:06:44;29.80;1.00
18281;DHT22;9266;51.132;17.062;2023-07-08T14:09:13;30.10;1.00
18281;DHT22;9266;51.132;17.062;2023-07-08T14:11:41;30.00;1.00
18281;DHT22;9266;51.132;17.062;2023-07-08T14:14:10;29.80;1.00
18281;DHT22;9266;51.132;17.062;2023-07-08T14:16:39;29.90;1.00
18281;DHT22;9266;51.132;17.062;2023-07-08T14:19:14;29.80;1.00
18281;DHT22;9266;51.132;17.062;2023-07-08T14:21:42;29.80;1.00
18281;DHT22;9266;51.132;17.062;2023-07-08T14:24:11;29.90;1.00
18281;DHT22;9266;51.132;17.062;2023-07-08T14:26:42;29.90;1.00
18281;DHT22;9266;51.132;17.062;2023-07-08T14:29:11;29.90;1.00
18281;DHT22;9266;51.132;17.062;2023-07-08T14:31:39;30.00;1.00
18281;DHT22;9266;51.132;17.062;2023-07-08T14:34:08;29.80;1.00
18281;DHT22;9266;51.132;17.062;2023-07-08T14:36:36;30.00;1.00
18281;DHT22;9266;51.132;17.062;2023-07-08T14:39:11;30.20;1.00
18281;DHT22;9266;51.132;17.062;2023-07-08T14:41:38;30.20;1.00
18281;DHT22;9266;51.132;17.062;2023-07-08T14:44:18;30.20;1.00
18281;DHT22;9266;51.132;17.062;2023-07-08T14:46:46;30.10;1.00
18281;DHT22;9266;51.132;17.062;2023-07-08T14:49:16;29.60;1.00
18281;DHT22;9266;51.132;17.062;2023-07-08T14:51:43;29.80;1.00
18281;DHT22;9266;51.132;17.062;2023-07-08T14:54:11;29.90;1.00
18281;DHT22;9266;51.132;17.062;2023-07-08T14:56:39;29.80;1.00
18281;DHT22;9266;51.132;17.062;2023-07-08T14:59:07;29.50;1.00
18281;DHT22;9266;51.132;17.062;2023-07-08T15:01:39;29.30;1.00
18281;DHT22;9266;51.132;17.062;2023-07-08T15:04:10;29.30;1.00
18281;DHT22;9266;51.132;17.062;2023-07-08T15:06:37;29.30;1.00
18281;DHT22;9266;51.132;17.062;2023-07-08T15:09:04;29.40;1.00
18281;DHT22;9266;51.132;17.062;2023-07-08T15:11:32;29.40;1.00
18281;DHT22;9266;51.132;17.062;2023-07-08T15:13:59;29.40;1.00
18281;DHT22;9266;51.132;17.062;2023-07-08T15:16:27;29.20;1.00
18281;DHT22;9266;51.132;17.062;2023-07-08T15:18:55;29.20;1.00
18281;DHT22;9266;51.132;17.062;2023-07-08T15:21:23;29.20;1.00
18281;DHT22;9266;51.132;17.062;2023-07-08T15:23:50;29.40;1.00
18281;DHT22;9266;51.132;17.062;2023-07-08T15:26:17;29.30;1.00
18281;DHT22;9266;51.132;17.062;2023-07-08T15:28:47;29.30;1.00
18281;DHT22;9266;51.132;17.062;2023-07-08T15:31:16;29.30;1.00
18281;DHT22;9266;51.132;17.062;2023-07-08T15:33:44;29.40;1.00
18281;DHT22;9266;51.132;17.062;2023-07-08T15:36:13;29.40;1.00
18281;DHT22;9266;51.132;17.062;2023-07-08T15:38:40;29.20;1.00
18281;DHT22;9266;51.132;17.062;2023-07-08T15:41:13;29.30;1.00
18281;DHT22;9266;51.132;17.062;2023-07-08T15:43:44;29.40;1.00
18281;DHT22;9266;51.132;17.062;2023-07-08T15:46:11;29.40;1.00
18281;DHT22;9266;51.132;17.062;2023-07-08T15:48:38;29.60;1.00
18281;DHT22;9266;51.132;17.062;2023-07-08T15:51:05;29.60;1.00
18281;DHT22;9266;51.132;17.062;2023-07-08T15:53:34;29.60;1.00
18281;DHT22;9266;51.132;17.062;2023-07-08T15:56:01;29.70;1.00
18281;DHT22;9266;51.132;17.062;2023-07-08T15:58:30;30.00;1.00